Time;durP1;ratioP1;P1;durP2;ratioP2;P2;SDS_P1;SDS_P2;PMS_P1;PMS_P2;Temp;Humidity;BMP_temperature;BMP_pressure;BME280_temperature;BME280_humidity;BME280_pressure;Samples;Min_cycle;Max_cycle;Signal;HPM_P1;HPM_P2
2023/04/12 00:01:01;;;;;;;7.57;1.63;;;8.80;65.40;;;;;;5046938;28;20056;-70
2023/04/12 00:03:29;;;;;;;9.00;1.63;;;8.80;65.50;;;;;;5048081;28;20057;-70
2023/04/12 00:05:56;;;;;;;8.23;1.75;;;8.80;65.60;;;;;;5029905;28;20118;-70
2023/04/12 00:08:25;;;;;;;6.35;1.60;;;8.80;65.80;;;;;;5032472;28;20053;-70
2023/04/12 00:10:52;;;;;;;7.10;1.50;;;8.80;65.90;;;;;;5042557;28;20784;-70
2023/04/12 00:13:21;;;;;;;5.20;1.70;;;8.80;65.90;;;;;;5042788;28;20055;-70
2023/04/12 00:15:49;;;;;;;7.07;1.67;;;8.80;65.80;;;;;;5028257;28;20081;-70
2023/04/12 00:18:16;;;;;;;7.30;1.40;;;8.90;66.00;;;;;;5040420;28;20041;-70
2023/04/12 00:20:43;;;;;;;6.95;1.80;;;8.90;66.10;;;;;;5042879;28;20049;-70
2023/04/12 00:23:11;;;;;;;6.90;1.57;;;8.90;66.20;;;;;;5035288;28;20133;-70
2023/04/12 00:25:39;;;;;;;5.18;1.60;;;8.90;66.40;;;;;;5037563;28;20053;-70
2023/04/12 00:28:06;;;;;;;8.52;1.85;;;8.90;66.40;;;;;;5042806;28;20061;-70
2023/04/12 00:30:35;;;;;;;5.57;1.73;;;8.90;66.40;;;;;;5045316;28;20053;-70
2023/04/12 00:33:02;;;;;;;7.25;1.60;;;9.00;66.70;;;;;;5046859;28;20148;-70
2023/04/12 00:35:29;;;;;;;8.40;1.90;;;9.00;66.70;;;;;;5042999;28;20070;-70
2023/04/12 00:37:56;;;;;;;5.88;1.40;;;9.00;66.70;;;;;;5010075;28;20129;-70
2023/04/12 00:40:23;;;;;;;7.07;1.50;;;9.00;66.70;;;;;;5026130;28;20187;-70
2023/04/12 00:42:50;;;;;;;7.15;1.55;;;9.00;66.70;;;;;;5046325;28;20128;-70
2023/04/12 00:45:18;;;;;;;7.70;2.03;;;9.00;66.90;;;;;;5029891;28;20127;-70
2023/04/12 00:47:46;;;;;;;6.80;1.70;;;9.00;67.20;;;;;;5038249;28;20073;-70
2023/04/12 00:50:14;;;;;;;7.07;1.55;;;9.10;67.00;;;;;;5020429;28;20077;-70
2023/04/12 00:52:41;;;;;;;6.28;1.75;;;9.10;67.00;;;;;;5027587;28;20165;-70
2023/04/12 00:55:09;;;;;;;7.22;1.35;;;9.10;67.10;;;;;;5022968;28;20158;-70
2023/04/12 00:57:38;;;;;;;5.93;1.58;;;9.20;67.40;;;;;;5043424;28;20053;-70
2023/04/12 01:00:11;;;;;;;5.73;1.13;;;9.20;67.30;;;;;;5038565;28;20057;-70
2023/04/12 01:02:40;;;;;;;7.13;1.63;;;9.20;67.30;;;;;;5024853;28;20099;-70
2023/04/12 01:05:13;;;;;;;6.53;1.40;;;9.20;67.30;;;;;;5041533;28;21023;-70
2023/04/12 01:07:53;;;;;;;7.72;1.52;;;9.20;67.50;;;;;;5043183;28;20146;-70
2023/04/12 01:10:32;;;;;;;8.00;1.60;;;9.20;67.50;;;;;;5038098;28;20053;-70
2023/04/12 01:13:09;;;;;;;8.30;1.77;;;9.20;67.50;;;;;;5008538;28;20887;-70
2023/04/12 01:15:44;;;;;;;6.75;1.73;;;9.20;67.70;;;;;;5033333;28;20053;-70
2023/04/12 01:18:18;;;;;;;6.75;1.63;;;9.20;67.60;;;;;;5031948;28;20117;-70
2023/04/12 01:20:56;;;;;;;9.60;1.90;;;9.20;67.60;;;;;;5049411;28;20497;-70
2023/04/12 01:23:51;;;;;;;7.93;1.77;;;9.30;67.80;;;;;;5046286;28;20049;-70
2023/04/12 01:26:33;;;;;;;8.60;1.93;;;9.30;68.00;;;;;;5055884;28;20074;-70
2023/04/12 01:29:08;;;;;;;7.00;1.58;;;9.40;68.30;;;;;;5042085;28;20057;-70
2023/04/12 01:31:36;;;;;;;6.97;1.50;;;9.40;68.30;;;;;;5029621;28;20050;-70
2023/04/12 01:34:05;;;;;;;6.63;1.42;;;9.40;68.90;;;;;;5033435;28;20140;-70
2023/04/12 01:36:34;;;;;;;5.57;1.30;;;9.40;69.00;;;;;;5040986;28;20053;-70
2023/04/12 01:39:04;;;;;;;6.10;1.30;;;9.40;69.40;;;;;;5045924;28;20108;-70
2023/04/12 01:41:32;;;;;;;6.60;1.45;;;9.40;69.60;;;;;;5037090;28;20141;-70
2023/04/12 01:43:59;;;;;;;8.30;1.45;;;9.40;69.70;;;;;;5037975;28;20489;-70
2023/04/12 01:46:28;;;;;;;7.00;1.70;;;9.40;70.10;;;;;;5039448;28;20049;-70
2023/04/12 01:48:56;;;;;;;4.63;1.10;;;9.40;70.00;;;;;;5046476;28;20494;-70
2023/04/12 01:51:37;;;;;;;6.37;0.90;;;9.40;70.10;;;;;;5032102;28;20049;-70
2023/04/12 01:54:10;;;;;;;6.90;1.23;;;9.40;70.40;;;;;;5032262;28;20092;-70
2023/04/12 01:56:40;;;;;;;5.22;1.60;;;9.40;70.70;;;;;;5032382;28;20526;-70
2023/04/12 01:59:08;;;;;;;8.15;1.30;;;9.40;70.50;;;;;;5031594;28;20065;-70
2023/04/12 02:01:37;;;;;;;7.05;1.33;;;9.40;71.10;;;;;;5024590;28;20120;-70
2023/04/12 02:04:07;;;;;;;8.17;1.10;;;9.40;71.50;;;;;;5022133;28;20096;-70
2023/04/12 02:06:34;;;;;;;7.30;1.33;;;9.40;71.30;;;;;;5040708;28;20050;-70
2023/04/12 02:09:04;;;;;;;7.22;1.50;;;9.40;71.50;;;;;;5061817;28;20604;-70
2023/04/12 02:11:33;;;;;;;7.50;1.23;;;9.40;71.60;;;;;;5029305;28;20056;-70
2023/04/12 02:14:00;;;;;;;7.85;1.48;;;9.40;71.90;;;;;;5048128;28;20050;-70
2023/04/12 02:16:28;;;;;;;6.73;1.53;;;9.40;72.20;;;;;;5039097;28;20058;-70
2023/04/12 02:18:57;;;;;;;5.00;1.02;;;9.40;72.40;;;;;;5016974;28;20588;-70
2023/04/12 02:21:26;;;;;;;7.05;1.30;;;9.40;72.70;;;;;;5029013;28;20077;-70
2023/04/12 02:23:54;;;;;;;4.63;0.98;;;9.40;73.40;;;;;;5028652;28;20057;-70
2023/04/12 02:26:22;;;;;;;6.45;1.30;;;9.40;73.20;;;;;;5031561;28;20149;-70
2023/04/12 02:28:51;;;;;;;3.67;1.10;;;9.30;73.20;;;;;;5028823;28;20055;-70
2023/04/12 02:31:19;;;;;;;5.30;1.40;;;9.30;73.30;;;;;;5031409;28;20140;-70
2023/04/12 02:33:48;;;;;;;5.80;1.30;;;9.30;73.50;;;;;;5031433;28;20049;-70
2023/04/12 02:36:17;;;;;;;6.00;1.30;;;9.20;73.40;;;;;;5050152;28;20077;-70
2023/04/12 02:38:44;;;;;;;4.90;1.00;;;9.20;73.80;;;;;;5045456;28;20053;-70
2023/04/12 02:41:17;;;;;;;5.13;1.20;;;9.30;74.20;;;;;;5011454;28;20050;-70
2023/04/12 02:43:44;;;;;;;4.93;0.90;;;9.20;73.80;;;;;;5028151;28;20050;-70
2023/04/12 02:46:18;;;;;;;10.30;1.73;;;9.20;74.10;;;;;;5028311;28;20057;-70
2023/04/12 02:48:50;;;;;;;4.70;1.13;;;9.20;74.10;;;;;;5028092;28;20053;-70
2023/04/12 02:51:20;;;;;;;5.88;1.10;;;9.20;74.60;;;;;;5047681;28;20057;-69
2023/04/12 02:53:51;;;;;;;5.03;1.30;;;9.20;75.00;;;;;;5048012;28;20084;-70
2023/04/12 02:56:23;;;;;;;4.63;1.00;;;9.20;75.50;;;;;;5027393;28;20156;-70
2023/04/12 02:58:56;;;;;;;4.18;0.70;;;9.20;75.10;;;;;;5027808;28;20152;-70
2023/04/12 03:01:45;;;;;;;6.75;1.00;;;9.20;75.50;;;;;;5017720;28;20051;-70
2023/04/12 03:04:28;;;;;;;4.63;1.00;;;9.20;75.40;;;;;;5030386;28;20906;-70
2023/04/12 03:06:58;;;;;;;3.70;0.70;;;9.10;75.50;;;;;;5019043;28;20049;-70
2023/04/12 03:13:04;;;;;;;8.80;1.00;;;9.10;75.50;;;;;;5005797;28;20543;-70
2023/04/12 03:15:55;;;;;;;4.15;0.52;;;9.00;75.50;;;;;;5000875;28;20053;-69
2023/04/12 03:18:24;;;;;;;3.88;0.88;;;9.10;75.70;;;;;;5023249;28;20053;-69
2023/04/12 03:20:53;;;;;;;5.07;1.37;;;9.00;75.30;;;;;;4990058;28;20047;-69
2023/04/12 03:23:21;;;;;;;4.38;0.95;;;9.00;75.50;;;;;;5019961;28;20718;-69
2023/04/12 03:25:56;;;;;;;4.18;0.55;;;9.10;75.70;;;;;;4991240;28;20058;-70
2023/04/12 03:28:29;;;;;;;3.28;0.60;;;9.00;75.80;;;;;;5007030;28;20050;-70
2023/04/12 03:30:58;;;;;;;5.18;1.13;;;9.00;75.70;;;;;;5023142;28;20106;-70
2023/04/12 03:33:32;;;;;;;5.33;0.93;;;9.00;75.80;;;;;;5022135;28;20137;-70
2023/04/12 03:36:03;;;;;;;5.13;0.88;;;9.00;75.60;;;;;;5008166;28;20061;-70
2023/04/12 03:38:32;;;;;;;5.03;1.02;;;9.00;75.90;;;;;;4990458;28;20105;-70
2023/04/12 03:41:00;;;;;;;5.55;1.00;;;9.00;75.70;;;;;;5006959;28;20046;-70
2023/04/12 03:43:36;;;;;;;4.78;1.25;;;9.00;75.70;;;;;;4990523;28;20539;-70
2023/04/12 03:46:08;;;;;;;5.63;1.10;;;9.00;75.70;;;;;;5023682;28;20050;-70
2023/04/12 03:48:35;;;;;;;5.57;1.10;;;9.00;75.70;;;;;;5023527;28;20046;-71
2023/04/12 03:51:07;;;;;;;7.70;1.40;;;9.00;75.50;;;;;;5006606;28;20050;-70
2023/04/12 03:53:38;;;;;;;4.65;1.27;;;9.00;75.70;;;;;;5004926;28;20046;-70
2023/04/12 03:56:05;;;;;;;5.95;1.38;;;9.00;75.60;;;;;;5006966;28;20124;-70
2023/04/12 03:58:32;;;;;;;4.93;1.07;;;9.00;75.60;;;;;;5006827;28;20239;-69
2023/04/12 04:01:01;;;;;;;5.82;1.30;;;9.00;75.60;;;;;;5006566;28;20093;-70
2023/04/12 04:03:28;;;;;;;5.28;1.17;;;9.00;75.50;;;;;;5006642;28;20993;-70
2023/04/12 04:06:08;;;;;;;6.35;1.50;;;9.00;75.40;;;;;;5006990;28;20072;-70
2023/04/12 04:08:35;;;;;;;4.30;1.13;;;9.00;75.70;;;;;;4990338;28;20050;-70
2023/04/12 04:11:04;;;;;;;4.87;1.00;;;9.00;75.70;;;;;;5004455;28;20046;-69
2023/04/12 04:13:38;;;;;;;5.72;1.20;;;9.00;76.10;;;;;;4986564;28;20149;-70
2023/04/12 04:16:09;;;;;;;6.72;1.42;;;9.00;75.70;;;;;;4986540;28;20054;-70
2023/04/12 04:18:37;;;;;;;5.13;1.10;;;9.00;76.00;;;;;;4986860;28;20066;-69
2023/04/12 04:21:07;;;;;;;5.63;1.10;;;9.00;76.00;;;;;;5006194;28;20501;-70
2023/04/12 04:23:37;;;;;;;4.70;1.20;;;9.00;76.30;;;;;;5022876;28;20042;-70
2023/04/12 04:26:08;;;;;;;6.05;1.35;;;9.00;76.20;;;;;;5006369;28;20062;-70
2023/04/12 04:28:37;;;;;;;6.35;1.55;;;9.00;76.20;;;;;;4988522;28;20236;-70
2023/04/12 04:31:05;;;;;;;5.57;1.30;;;9.00;76.30;;;;;;5006097;28;20082;-69
2023/04/12 04:33:35;;;;;;;4.82;1.23;;;9.00;76.30;;;;;;5002594;28;20055;-70
2023/04/12 04:36:04;;;;;;;5.30;1.10;;;9.00;76.40;;;;;;4986496;28;20130;-70
2023/04/12 04:38:32;;;;;;;8.02;1.30;;;8.90;76.50;;;;;;4998509;28;20105;-70
2023/04/12 04:41:14;;;;;;;5.45;1.17;;;9.00;76.60;;;;;;5022363;28;20314;-70
2023/04/12 04:43:50;;;;;;;3.78;1.00;;;9.00;76.80;;;;;;4989746;28;20101;-69
2023/04/12 04:46:20;;;;;;;9.68;1.30;;;8.90;76.80;;;;;;5007881;28;20058;-70
2023/04/12 04:48:48;;;;;;;6.13;1.30;;;8.90;77.10;;;;;;4987277;28;20054;-70
2023/04/12 04:51:15;;;;;;;5.00;1.10;;;9.00;77.20;;;;;;4989660;28;20047;-70
2023/04/12 04:53:42;;;;;;;5.00;1.20;;;8.90;77.20;;;;;;4992957;28;20046;-69
2023/04/12 04:56:13;;;;;;;4.43;1.05;;;8.90;77.00;;;;;;4993187;28;20085;-70
2023/04/12 04:58:41;;;;;;;5.80;1.20;;;8.90;77.30;;;;;;5026085;28;20141;-69
2023/04/12 05:01:11;;;;;;;7.13;1.47;;;8.90;77.40;;;;;;5009322;28;20047;-69
2023/04/12 05:03:39;;;;;;;5.28;1.20;;;8.90;77.40;;;;;;5009685;28;20065;-69
2023/04/12 05:06:09;;;;;;;6.07;1.85;;;8.90;77.60;;;;;;5007554;28;20054;-69
2023/04/12 05:08:38;;;;;;;7.25;1.50;;;8.90;78.00;;;;;;4993214;28;20121;-70
2023/04/12 05:11:05;;;;;;;5.75;1.70;;;8.90;77.90;;;;;;5008906;28;20592;-69
2023/04/12 05:13:34;;;;;;;5.17;1.40;;;8.80;78.10;;;;;;4991022;28;20626;-69
2023/04/12 05:16:01;;;;;;;5.05;1.30;;;8.80;77.90;;;;;;5003816;28;20136;-69
2023/04/12 05:18:28;;;;;;;6.47;1.50;;;8.80;78.10;;;;;;5019475;28;21013;-69
2023/04/12 05:20:55;;;;;;;4.53;1.00;;;8.80;78.40;;;;;;5020603;28;20120;-69
2023/04/12 05:23:22;;;;;;;4.50;1.25;;;8.80;78.40;;;;;;5006557;28;20069;-69
2023/04/12 05:25:52;;;;;;;7.90;1.60;;;8.80;78.60;;;;;;5021443;28;20046;-69
2023/04/12 05:28:21;;;;;;;6.07;1.65;;;8.80;78.70;;;;;;4991019;28;20406;-69
2023/04/12 05:30:49;;;;;;;5.28;1.38;;;8.80;79.00;;;;;;5006144;28;20622;-70
2023/04/12 05:33:21;;;;;;;6.32;1.33;;;8.80;78.70;;;;;;4991553;28;20061;-69
2023/04/12 05:35:49;;;;;;;4.70;1.20;;;8.80;78.90;;;;;;4991955;28;20383;-70
2023/04/12 05:38:16;;;;;;;4.23;0.97;;;8.70;79.20;;;;;;4992216;28;20046;-69
2023/04/12 05:40:47;;;;;;;4.20;1.40;;;8.70;79.30;;;;;;4991421;28;20074;-69
2023/04/12 05:43:17;;;;;;;6.18;1.55;;;8.70;79.60;;;;;;5005088;28;20054;-69
2023/04/12 05:45:44;;;;;;;5.57;1.40;;;8.60;79.50;;;;;;5007709;28;20065;-69
2023/04/12 05:48:12;;;;;;;4.47;1.02;;;8.60;79.70;;;;;;5006210;28;20058;-69
2023/04/12 05:50:40;;;;;;;6.10;1.30;;;8.60;79.80;;;;;;5007558;28;20131;-69
2023/04/12 05:53:09;;;;;;;6.30;1.30;;;8.60;80.00;;;;;;4991576;28;20046;-70
2023/04/12 05:55:36;;;;;;;5.10;1.40;;;8.60;79.80;;;;;;5007828;28;20605;-69
2023/04/12 05:58:03;;;;;;;5.65;1.33;;;8.60;79.90;;;;;;4988935;28;20050;-69
2023/04/12 06:00:31;;;;;;;4.72;1.27;;;8.60;80.10;;;;;;5005594;28;20055;-69
2023/04/12 06:02:58;;;;;;;4.50;1.23;;;8.60;80.30;;;;;;5008242;28;20058;-69
2023/04/12 06:05:27;;;;;;;4.45;1.10;;;8.60;80.20;;;;;;4988320;28;20046;-69
2023/04/12 06:07:58;;;;;;;5.25;0.93;;;8.60;80.50;;;;;;4988786;28;20054;-69
2023/04/12 06:10:25;;;;;;;4.95;1.13;;;8.60;80.70;;;;;;5004825;28;20055;-69
2023/04/12 06:12:53;;;;;;;3.83;1.13;;;8.60;80.70;;;;;;5006261;28;20165;-69
2023/04/12 06:15:23;;;;;;;4.87;1.20;;;8.60;80.80;;;;;;5001337;28;20138;-69
2023/04/12 06:17:57;;;;;;;3.55;0.85;;;8.60;80.80;;;;;;5003241;28;20098;-70
2023/04/12 06:20:24;;;;;;;6.20;1.10;;;8.60;81.40;;;;;;5016809;28;22002;-70
2023/04/12 06:22:53;;;;;;;4.55;1.10;;;8.60;81.40;;;;;;5005792;28;20053;-71
2023/04/12 06:25:21;;;;;;;4.38;0.90;;;8.60;81.40;;;;;;5006453;28;20145;-70
2023/04/12 06:27:49;;;;;;;5.80;1.23;;;8.60;81.40;;;;;;5008391;28;20567;-70
2023/04/12 06:30:18;;;;;;;3.85;1.08;;;8.60;81.40;;;;;;5022052;28;20461;-70
2023/04/12 06:32:46;;;;;;;4.55;0.98;;;8.60;81.80;;;;;;5005363;28;20347;-70
2023/04/12 06:35:13;;;;;;;4.95;1.02;;;8.50;81.60;;;;;;5020852;28;20053;-70
2023/04/12 06:37:40;;;;;;;3.63;1.05;;;8.50;82.10;;;;;;4988001;28;20498;-70
2023/04/12 06:40:11;;;;;;;5.03;1.30;;;8.50;82.10;;;;;;5006827;28;20641;-71
2023/04/12 06:42:38;;;;;;;4.45;1.00;;;8.50;82.10;;;;;;5006835;28;20517;-70
2023/04/12 06:45:06;;;;;;;5.78;1.17;;;8.50;82.20;;;;;;5008114;28;20058;-71
2023/04/12 06:47:33;;;;;;;4.65;1.08;;;8.50;82.40;;;;;;5007102;28;20078;-70
2023/04/12 06:50:00;;;;;;;4.05;1.10;;;8.50;82.70;;;;;;5005941;28;20058;-70
2023/04/12 06:52:27;;;;;;;3.17;0.80;;;8.50;82.60;;;;;;5006596;28;20500;-70
2023/04/12 06:54:55;;;;;;;4.53;1.05;;;8.50;82.80;;;;;;5005404;28;20567;-70
2023/04/12 06:57:23;;;;;;;5.25;1.30;;;8.50;82.70;;;;;;4990750;28;20655;-70
2023/04/12 06:59:51;;;;;;;4.25;1.33;;;8.50;82.60;;;;;;5001437;28;20133;-70
2023/04/12 07:02:18;;;;;;;3.92;1.27;;;8.50;83.00;;;;;;4998164;28;20117;-70
2023/04/12 07:04:45;;;;;;;3.17;1.40;;;8.60;83.30;;;;;;5006295;28;20435;-70
2023/04/12 07:07:12;;;;;;;4.95;1.30;;;8.50;83.30;;;;;;5007516;28;20590;-70
2023/04/12 07:09:39;;;;;;;3.60;1.42;;;8.50;83.20;;;;;;5004549;28;20165;-70
2023/04/12 07:12:06;;;;;;;4.78;1.30;;;8.50;83.20;;;;;;5001106;28;20062;-70
2023/04/12 07:14:34;;;;;;;4.40;1.23;;;8.50;83.40;;;;;;5012764;28;20161;-71
2023/04/12 07:17:01;;;;;;;3.67;1.00;;;8.50;83.40;;;;;;5016195;28;20050;-71
2023/04/12 07:19:30;;;;;;;4.45;1.25;;;8.50;83.50;;;;;;5001689;28;20042;-70
2023/04/12 07:21:57;;;;;;;5.53;1.50;;;8.50;83.60;;;;;;5003267;28;20050;-71
2023/04/12 07:24:24;;;;;;;5.72;1.30;;;8.50;83.40;;;;;;5007094;28;20109;-71
2023/04/12 07:26:53;;;;;;;4.68;1.20;;;8.50;83.80;;;;;;5004243;28;21116;-70
2023/04/12 07:29:20;;;;;;;3.73;1.37;;;8.50;84.00;;;;;;5003665;28;20055;-71
2023/04/12 07:31:49;;;;;;;6.15;1.50;;;8.50;83.70;;;;;;5005244;28;20137;-70
2023/04/12 07:34:16;;;;;;;3.30;1.35;;;8.50;83.90;;;;;;5002411;28;20050;-70
2023/04/12 07:36:43;;;;;;;4.75;1.55;;;8.50;83.70;;;;;;5002800;28;20117;-71
2023/04/12 07:39:11;;;;;;;6.55;1.73;;;8.50;83.90;;;;;;5007206;28;20050;-70
2023/04/12 07:41:39;;;;;;;4.03;1.60;;;8.50;84.00;;;;;;5004931;28;20061;-70
2023/04/12 07:44:06;;;;;;;4.43;1.70;;;8.50;84.20;;;;;;5007163;28;20050;-70
2023/04/12 07:46:34;;;;;;;5.53;2.00;;;8.50;83.80;;;;;;5023099;28;20473;-69
2023/04/12 07:49:03;;;;;;;4.97;1.75;;;8.50;84.10;;;;;;4998880;28;20189;-70
2023/04/12 07:51:30;;;;;;;5.15;1.70;;;8.50;84.10;;;;;;5000505;28;20054;-70
2023/04/12 07:53:57;;;;;;;3.57;1.50;;;8.50;84.10;;;;;;5003356;28;20049;-70
2023/04/12 07:56:24;;;;;;;4.95;1.83;;;8.60;84.10;;;;;;5004218;28;20133;-69
2023/04/12 07:58:51;;;;;;;5.20;1.80;;;8.60;84.10;;;;;;5004065;28;20046;-71
2023/04/12 08:01:18;;;;;;;4.50;1.30;;;8.60;84.20;;;;;;5001428;28;20043;-71
2023/04/12 08:03:46;;;;;;;5.25;1.90;;;8.60;84.20;;;;;;5016474;28;20133;-71
2023/04/12 08:06:16;;;;;;;4.13;1.90;;;8.50;84.30;;;;;;5008257;28;20054;-71
2023/04/12 08:08:43;;;;;;;4.50;1.85;;;8.60;84.40;;;;;;4995048;28;20047;-71
2023/04/12 08:11:10;;;;;;;4.13;2.00;;;8.60;84.40;;;;;;4995718;28;20050;-70
2023/04/12 08:13:37;;;;;;;4.18;1.50;;;8.60;84.30;;;;;;5002390;28;20067;-70
2023/04/12 08:16:07;;;;;;;4.43;2.05;;;8.60;84.80;;;;;;5002996;28;20062;-71
2023/04/12 08:18:34;;;;;;;4.43;2.00;;;8.60;84.50;;;;;;5003137;28;20054;-70
2023/04/12 08:21:01;;;;;;;5.43;2.08;;;8.60;84.60;;;;;;4999570;28;20136;-71
2023/04/12 08:23:30;;;;;;;4.63;2.20;;;8.60;84.60;;;;;;5002006;28;20042;-70
2023/04/12 08:26:02;;;;;;;5.03;2.50;;;8.60;84.60;;;;;;5002907;28;20054;-70
2023/04/12 08:28:29;;;;;;;4.55;2.30;;;8.60;84.80;;;;;;5001342;28;20055;-70
2023/04/12 08:30:57;;;;;;;4.20;2.10;;;8.60;84.90;;;;;;5002818;28;20161;-70
2023/04/12 08:33:25;;;;;;;4.90;2.50;;;8.60;84.90;;;;;;5004072;28;20054;-70
2023/04/12 08:35:52;;;;;;;5.28;2.65;;;8.70;85.00;;;;;;5002648;28;20053;-71
2023/04/12 08:38:19;;;;;;;5.65;2.40;;;8.70;85.00;;;;;;5005805;28;20046;-70
2023/04/12 08:40:48;;;;;;;4.78;2.63;;;8.70;85.00;;;;;;4993415;28;20141;-71
2023/04/12 08:43:17;;;;;;;4.93;3.00;;;8.70;84.90;;;;;;5006112;28;20126;-71
2023/04/12 08:45:45;;;;;;;5.45;2.70;;;8.70;85.00;;;;;;5007323;28;20058;-70
2023/04/12 08:48:12;;;;;;;5.07;3.10;;;8.70;85.10;;;;;;5002478;28;20058;-71
2023/04/12 08:50:42;;;;;;;6.30;2.63;;;8.80;85.10;;;;;;4983102;28;20137;-70
2023/04/12 08:53:11;;;;;;;5.57;3.40;;;8.80;85.40;;;;;;4996724;28;20105;-70
2023/04/12 08:55:38;;;;;;;7.33;3.50;;;8.80;85.30;;;;;;5005867;28;20149;-71
2023/04/12 08:58:08;;;;;;;7.40;4.60;;;8.80;85.30;;;;;;5001483;28;20055;-72
2023/04/12 09:00:37;;;;;;;16.60;10.43;;;8.80;85.20;;;;;;5003497;28;20054;-71
2023/04/12 09:03:05;;;;;;;6.25;4.10;;;8.80;85.10;;;;;;5003331;28;20938;-70
2023/04/12 09:05:32;;;;;;;6.38;4.40;;;8.90;85.60;;;;;;5004865;28;20051;-70
2023/04/12 09:07:59;;;;;;;6.60;4.40;;;8.90;85.50;;;;;;5004325;28;20101;-71
2023/04/12 09:10:33;;;;;;;6.80;3.70;;;8.90;85.60;;;;;;5001641;28;20141;-71
2023/04/12 09:13:01;;;;;;;6.90;4.20;;;9.00;85.60;;;;;;4993918;28;20113;-70
2023/04/12 09:15:30;;;;;;;6.15;4.03;;;9.00;85.60;;;;;;5004172;28;20054;-70
2023/04/12 09:18:06;;;;;;;6.05;4.00;;;9.00;85.50;;;;;;5000063;28;20094;-70
2023/04/12 09:20:33;;;;;;;6.57;3.73;;;9.00;85.60;;;;;;5000679;28;20070;-70
2023/04/12 09:23:01;;;;;;;6.30;3.42;;;9.00;85.60;;;;;;4999810;28;20054;-70
2023/04/12 09:25:40;;;;;;;6.35;4.60;;;9.00;85.40;;;;;;4987370;28;20059;-70
2023/04/12 09:28:28;;;;;;;6.45;3.90;;;9.00;85.70;;;;;;5004704;28;21035;-70
2023/04/12 09:30:58;;;;;;;6.05;4.15;;;9.00;85.70;;;;;;4998320;28;20050;-70
2023/04/12 09:33:34;;;;;;;5.37;3.17;;;9.00;85.70;;;;;;4996080;28;20055;-70
2023/04/12 09:36:02;;;;;;;8.73;4.57;;;9.00;86.00;;;;;;5007364;28;20105;-70
2023/04/12 09:38:30;;;;;;;6.57;3.92;;;9.20;86.10;;;;;;5006185;28;20057;-70
2023/04/12 09:40:57;;;;;;;6.97;4.03;;;9.20;85.90;;;;;;5021450;28;20066;-70
2023/04/12 09:43:37;;;;;;;6.97;3.83;;;9.20;86.10;;;;;;5008277;28;20137;-70
2023/04/12 09:46:12;;;;;;;6.60;3.83;;;9.20;86.40;;;;;;4999045;28;20098;-70
2023/04/12 09:48:39;;;;;;;6.78;3.80;;;9.20;86.20;;;;;;5008906;28;20051;-70
2023/04/12 09:51:07;;;;;;;6.25;3.78;;;9.20;86.00;;;;;;5009811;28;20141;-70
2023/04/12 09:53:36;;;;;;;6.82;3.25;;;9.20;86.20;;;;;;5008817;28;20065;-70
2023/04/12 09:56:04;;;;;;;7.22;3.20;;;9.30;86.30;;;;;;5021502;28;20129;-71
2023/04/12 09:58:33;;;;;;;7.73;3.17;;;9.40;86.20;;;;;;5006605;28;20042;-70
2023/04/12 10:01:02;;;;;;;7.45;3.30;;;9.40;86.20;;;;;;5005755;28;20047;-71
2023/04/12 10:03:31;;;;;;;8.75;3.80;;;9.40;86.10;;;;;;5003606;28;20901;-71
2023/04/12 10:05:58;;;;;;;8.20;3.63;;;9.40;86.20;;;;;;5006024;28;20054;-71
2023/04/12 10:08:26;;;;;;;7.75;3.90;;;9.50;85.90;;;;;;5007514;28;20061;-70
2023/04/12 10:10:54;;;;;;;10.87;5.57;;;9.50;85.90;;;;;;5007699;28;20100;-71
2023/04/12 10:13:22;;;;;;;7.40;3.90;;;9.50;86.10;;;;;;5007739;28;20549;-70
2023/04/12 10:15:51;;;;;;;7.78;3.60;;;9.50;85.90;;;;;;5007505;28;20558;-70
2023/04/12 10:18:19;;;;;;;8.95;3.65;;;9.60;86.20;;;;;;5007055;28;20085;-71
2023/04/12 10:20:47;;;;;;;7.90;4.18;;;9.60;86.10;;;;;;5005420;28;20054;-70
2023/04/12 10:23:18;;;;;;;7.77;3.80;;;9.70;86.40;;;;;;4998968;28;20082;-71
2023/04/12 10:25:47;;;;;;;8.38;3.55;;;9.80;86.10;;;;;;4999650;28;20077;-70
2023/04/12 10:28:17;;;;;;;7.63;3.67;;;9.90;85.60;;;;;;5000090;28;20270;-70
2023/04/12 10:30:46;;;;;;;10.60;3.50;;;10.00;85.20;;;;;;5001962;28;20058;-70
2023/04/12 10:33:16;;;;;;;8.43;3.25;;;10.00;85.20;;;;;;5003398;28;20057;-71
2023/04/12 10:35:53;;;;;;;8.23;2.93;;;10.00;85.00;;;;;;5007749;28;20054;-71
2023/04/12 10:38:23;;;;;;;10.90;3.58;;;10.10;84.90;;;;;;5006086;28;20564;-70
2023/04/12 10:41:18;;;;;;;9.20;3.17;;;10.10;84.90;;;;;;4996956;28;20070;-71
2023/04/12 10:43:46;;;;;;;9.20;3.00;;;10.20;84.40;;;;;;4979807;28;20398;-70
2023/04/12 10:46:50;;;;;;;9.73;2.90;;;10.20;84.50;;;;;;4999875;28;20050;-71
2023/04/12 10:49:18;;;;;;;9.10;3.07;;;10.30;84.40;;;;;;5002969;28;20543;-70
2023/04/12 10:52:13;;;;;;;7.60;2.90;;;10.40;83.70;;;;;;5004981;28;20057;-70
2023/04/12 10:54:40;;;;;;;11.57;2.97;;;10.40;83.40;;;;;;4999581;28;20049;-70
2023/04/12 10:57:46;;;;;;;6.90;2.70;;;10.50;82.90;;;;;;5008537;28;20050;-71
2023/04/12 11:00:15;;;;;;;9.73;2.65;;;10.50;82.60;;;;;;5021742;28;20129;-70
2023/04/12 11:03:10;;;;;;;7.90;2.50;;;10.50;82.30;;;;;;5021216;28;20402;-71
2023/04/12 11:06:00;;;;;;;7.55;2.08;;;10.60;81.80;;;;;;4991625;28;20057;-71
2023/04/12 11:08:47;;;;;;;8.63;2.00;;;10.60;80.80;;;;;;5006623;28;20140;-70
2023/04/12 11:11:34;;;;;;;7.18;2.08;;;10.70;80.00;;;;;;5006574;28;20093;-70
2023/04/12 11:14:03;;;;;;;9.02;1.85;;;10.80;78.10;;;;;;5004330;28;20197;-71
2023/04/12 11:16:30;;;;;;;8.87;2.07;;;10.90;78.00;;;;;;5017367;28;20367;-71
2023/04/12 11:18:57;;;;;;;8.25;1.65;;;10.90;78.20;;;;;;5004160;28;20552;-71
2023/04/12 11:21:25;;;;;;;10.73;1.80;;;11.00;77.60;;;;;;5003083;28;20350;-71
2023/04/12 11:23:53;;;;;;;9.43;1.65;;;11.10;77.40;;;;;;5005077;28;20054;-71
2023/04/12 11:26:20;;;;;;;10.15;1.75;;;11.10;76.20;;;;;;5005231;28;20402;-71
2023/04/12 11:28:51;;;;;;;10.97;1.83;;;11.20;74.90;;;;;;5001353;28;20058;-71
2023/04/12 11:31:21;;;;;;;7.82;1.77;;;11.30;74.60;;;;;;5007905;28;20524;-72
2023/04/12 11:33:48;;;;;;;9.25;1.98;;;11.40;72.90;;;;;;5017267;28;20161;-71
2023/04/12 11:36:15;;;;;;;8.80;1.58;;;11.50;72.70;;;;;;5005790;28;20125;-71
2023/04/12 11:38:44;;;;;;;9.38;2.00;;;11.50;71.60;;;;;;5006612;28;20054;-70
2023/04/12 11:41:14;;;;;;;8.50;1.60;;;11.60;72.20;;;;;;5008490;28;20088;-71
2023/04/12 11:43:41;;;;;;;10.48;1.60;;;11.60;71.50;;;;;;5007302;28;20058;-70
2023/04/12 11:46:09;;;;;;;9.13;1.70;;;11.70;70.00;;;;;;5005469;28;20050;-71
2023/04/12 11:48:38;;;;;;;9.48;1.80;;;11.70;69.80;;;;;;4983361;28;20100;-71
2023/04/12 11:51:19;;;;;;;6.55;1.15;;;11.80;69.90;;;;;;5019106;28;20050;-70
2023/04/12 11:53:46;;;;;;;10.03;1.57;;;11.90;69.60;;;;;;5041043;28;20166;-71
2023/04/12 11:56:13;;;;;;;9.50;1.17;;;11.90;69.60;;;;;;5023077;28;20157;-71
2023/04/12 11:58:40;;;;;;;12.05;2.10;;;12.00;69.00;;;;;;5025139;28;20060;-71
2023/04/12 12:01:07;;;;;;;7.22;1.27;;;12.00;69.60;;;;;;5027170;28;20509;-71
2023/04/12 12:03:34;;;;;;;10.55;1.90;;;12.10;69.50;;;;;;5023672;28;20082;-71
2023/04/12 12:06:03;;;;;;;8.13;1.53;;;12.20;69.20;;;;;;5025630;28;20056;-71
2023/04/12 12:08:30;;;;;;;10.48;1.50;;;12.20;67.50;;;;;;5024337;28;20140;-71
2023/04/12 12:10:57;;;;;;;11.15;1.70;;;12.30;67.40;;;;;;5024785;28;20129;-71
2023/04/12 12:13:24;;;;;;;9.48;2.10;;;12.30;65.30;;;;;;5022829;28;20056;-71
2023/04/12 12:15:52;;;;;;;7.20;1.15;;;12.30;65.90;;;;;;5014983;28;20615;-71
2023/04/12 12:18:20;;;;;;;4.07;0.80;;;12.20;66.60;;;;;;5021329;28;20754;-71
2023/04/12 12:20:50;;;;;;;10.15;1.75;;;12.20;65.20;;;;;;5011929;28;20051;-71
2023/04/12 12:23:30;;;;;;;8.57;0.90;;;12.10;65.40;;;;;;5025912;28;20054;-71
2023/04/12 12:25:57;;;;;;;9.93;1.73;;;12.10;65.30;;;;;;5030572;28;20060;-71
2023/04/12 12:28:24;;;;;;;9.77;1.65;;;12.00;66.30;;;;;;5019797;28;20122;-71
2023/04/12 12:30:53;;;;;;;12.17;1.60;;;12.10;66.60;;;;;;5013679;28;20058;-71
2023/04/12 12:33:20;;;;;;;5.65;1.10;;;12.10;66.90;;;;;;5018855;28;20109;-71
2023/04/12 12:35:56;;;;;;;11.40;1.65;;;12.10;67.50;;;;;;5014059;28;20133;-71
2023/04/12 12:38:23;;;;;;;10.20;1.30;;;12.10;65.80;;;;;;5014864;28;20058;-71
2023/04/12 12:40:52;;;;;;;5.47;0.80;;;12.20;63.60;;;;;;5025937;28;20042;-71
2023/04/12 12:43:20;;;;;;;4.10;0.57;;;12.10;60.00;;;;;;5027553;28;20169;-71
2023/04/12 12:45:47;;;;;;;5.50;0.77;;;12.10;59.10;;;;;;5026107;28;20467;-71
2023/04/12 12:48:14;;;;;;;6.72;1.20;;;12.10;58.50;;;;;;5026945;28;20104;-71
2023/04/12 12:50:41;;;;;;;6.40;0.88;;;12.00;58.60;;;;;;5017537;28;20073;-71
2023/04/12 12:53:09;;;;;;;8.07;0.90;;;12.00;58.00;;;;;;5038499;28;20073;-71
2023/04/12 12:55:36;;;;;;;8.27;1.63;;;11.90;59.00;;;;;;5029494;28;20499;-71
2023/04/12 12:58:05;;;;;;;5.85;1.00;;;11.90;59.50;;;;;;5041491;28;20073;-71
2023/04/12 13:00:32;;;;;;;6.15;0.90;;;11.90;57.70;;;;;;5040068;28;20603;-71
2023/04/12 13:02:59;;;;;;;6.22;0.90;;;11.90;57.50;;;;;;5040268;28;20038;-71
2023/04/12 13:05:26;;;;;;;6.90;1.20;;;11.90;58.50;;;;;;5026327;28;20141;-71
2023/04/12 13:07:53;;;;;;;5.53;0.90;;;11.80;57.20;;;;;;5025953;28;20502;-71
2023/04/12 13:10:20;;;;;;;5.75;0.70;;;11.70;58.30;;;;;;5024400;28;20133;-71
2023/04/12 13:12:47;;;;;;;8.05;1.40;;;11.70;58.90;;;;;;5028587;28;20554;-71